This is the latest recevied weather packets stored in our database for station/object WG5EEK. If no packets are shown the sender has not sent any weather packets the latest 10 day(s).
| Time | Temp. | Humidity | Pressure | Rain* | Wind** | Luminosity | Snow |
|---|---|---|---|---|---|---|---|
| 1777976669 | 20.56° C | 88% | 969.1 hPa | - | - | - | - |
| 1777975587 | 20.56° C | 88% | 969 hPa | - | - | - | - |
| 1777973068 | 20.56° C | 88% | 969 hPa | - | - | - | - |
| 1777969081 | 21.11° C | 87% | 968.8 hPa | - | - | - | - |
| 1777965123 | 21.67° C | 81% | 965.8 hPa | - | - | - | - |
| 1777961162 | 22.78° C | 73% | 966.7 hPa | - | - | - | - |
| 1777959721 | 22.78° C | 71% | 966.6 hPa | - | - | - | - |
| 1777959362 | 22.78° C | 70% | 966.3 hPa | - | - | - | - |
| 1777957921 | 22.78° C | 70% | 965.7 hPa | - | - | - | - |
| 1777956866 | 22.78° C | 70% | 965.9 hPa | - | - | - | - |
| 1777955427 | 22.78° C | 70% | 965.9 hPa | - | - | - | - |
| 1777955043 | 22.78° C | 70% | 966 hPa | - | - | - | - |
| 1777950722 | 23.33° C | 69% | 965.7 hPa | - | - | - | - |
| 1777950362 | 23.33° C | 69% | 966.1 hPa | - | - | - | - |
| 1777949642 | 23.33° C | 69% | 965.8 hPa | - | - | - | - |
| 1777948921 | 23.89° C | 68% | 965.3 hPa | - | - | - | - |
| 1777946067 | 24.44° C | 66% | 963.9 hPa | - | - | - | - |
| 1777945682 | 24.44° C | 66% | 963.9 hPa | - | - | - | - |
| 1777944627 | 24.44° C | 66% | 963.9 hPa | - | - | - | - |
| 1777943881 | 24.44° C | 64% | 963 hPa | - | - | - | - |
| 1777942081 | 25° C | 63% | 962 hPa | - | - | - | - |
| 1777939922 | 25.56° C | 63% | 961.5 hPa | - | - | - | - |
| 1777937041 | 26.67° C | 60% | 960.2 hPa | - | - | - | - |
| 1777935988 | 26.11° C | 60% | 960.5 hPa | - | - | - | - |
| 1777934908 | 26.67° C | 60% | 960.2 hPa | - | - | - | - |
* Rain since midnight (hover to see other rain measurements)
** Current wind speed in m/s (hover to see current wind gust speed)